createdAt,value
2023-04-28T00:00:21.209Z,7.85
2023-04-28T00:02:49.152Z,7.82
2023-04-28T00:05:16.558Z,7.78
2023-04-28T00:07:43.928Z,7.78
2023-04-28T00:10:11.205Z,7.82
2023-04-28T00:12:38.306Z,7.85
2023-04-28T00:15:05.769Z,7.83
2023-04-28T00:17:33.135Z,7.81
2023-04-28T00:20:00.190Z,7.82
2023-04-28T00:22:27.279Z,7.85
2023-04-28T00:24:54.368Z,7.86
2023-04-28T00:27:21.507Z,7.87
2023-04-28T00:29:48.759Z,7.83
2023-04-28T00:32:16.019Z,7.78
2023-04-28T00:34:43.062Z,7.76
2023-04-28T00:37:10.170Z,7.74
2023-04-28T00:39:37.628Z,7.74
2023-04-28T00:42:04.818Z,7.74
2023-04-28T00:44:32.060Z,7.76
2023-04-28T00:46:59.730Z,7.77
2023-04-28T00:49:26.980Z,7.76
2023-04-28T00:51:54.068Z,7.70
2023-04-28T00:54:21.618Z,7.70
2023-04-28T00:56:48.828Z,7.69
2023-04-28T00:59:16.333Z,7.64
2023-04-28T01:01:43.876Z,7.65
2023-04-28T01:04:11.497Z,7.70
2023-04-28T01:06:41.715Z,7.73
2023-04-28T01:09:08.789Z,7.57
2023-04-28T01:11:37.529Z,7.54
2023-04-28T01:14:10.237Z,7.65
2023-04-28T01:16:40.787Z,7.72
2023-04-28T01:19:08.435Z,7.73
2023-04-28T01:21:37.942Z,7.64
2023-04-28T01:24:15.983Z,7.67
2023-04-28T01:26:44.716Z,7.58
2023-04-28T01:29:11.900Z,7.57
2023-04-28T01:31:39.112Z,7.65
2023-04-28T01:34:06.261Z,7.70
2023-04-28T01:36:36.658Z,7.74
2023-04-28T01:39:04.896Z,7.72
2023-04-28T01:41:34.579Z,7.66
2023-04-28T01:44:01.841Z,7.55
2023-04-28T01:46:29.003Z,7.60
2023-04-28T01:48:56.293Z,7.60
2023-04-28T01:51:23.392Z,7.61
2023-04-28T01:53:50.899Z,7.68
2023-04-28T01:56:18.012Z,7.67
2023-04-28T01:58:45.132Z,7.63
2023-04-28T02:01:13.338Z,7.64
2023-04-28T02:03:40.941Z,7.61
2023-04-28T02:06:08.098Z,7.52
2023-04-28T02:08:36.141Z,7.52
2023-04-28T02:11:04.207Z,7.61
2023-04-28T02:13:31.434Z,7.59
2023-04-28T02:16:02.437Z,7.56
2023-04-28T02:18:29.880Z,7.49
2023-04-28T02:21:08.347Z,7.59
2023-04-28T02:23:35.694Z,7.66
2023-04-28T02:26:05.678Z,7.64
2023-04-28T02:28:32.963Z,7.65
2023-04-28T02:31:03.884Z,7.66
2023-04-28T02:33:31.160Z,7.68
2023-04-28T02:36:02.069Z,7.67
2023-04-28T02:38:29.143Z,7.57
2023-04-28T02:41:06.527Z,7.60
2023-04-28T02:43:33.793Z,7.62
2023-04-28T02:46:02.217Z,7.57
2023-04-28T02:48:29.345Z,7.55
2023-04-28T02:50:56.383Z,7.46
2023-04-28T02:53:23.480Z,7.40
2023-04-28T02:55:50.930Z,7.45
2023-04-28T02:58:18.483Z,7.47
2023-04-28T03:00:47.089Z,7.43
2023-04-28T03:03:14.937Z,7.46
2023-04-28T03:05:42.419Z,7.43
2023-04-28T03:08:09.453Z,7.41
2023-04-28T03:10:36.613Z,7.34
2023-04-28T03:13:06.382Z,7.30
2023-04-28T03:15:33.501Z,7.41
2023-04-28T03:18:01.212Z,7.38
2023-04-28T03:20:29.284Z,7.34
2023-04-28T03:22:56.520Z,7.38
2023-04-28T03:25:23.759Z,7.39
2023-04-28T03:27:51.872Z,7.39
2023-04-28T03:30:19.810Z,7.40
2023-04-28T03:32:47.157Z,7.45
2023-04-28T03:35:15.097Z,7.45
2023-04-28T03:37:43.224Z,7.37
2023-04-28T03:40:10.693Z,7.30
2023-04-28T03:42:54.964Z,7.36
2023-04-28T03:45:32.557Z,7.34
2023-04-28T03:47:59.734Z,7.36
2023-04-28T03:50:26.936Z,7.32
2023-04-28T03:52:55.151Z,7.36
2023-04-28T03:55:22.819Z,7.35
2023-04-28T03:57:51.820Z,7.36
2023-04-28T04:00:19.266Z,7.35
2023-04-28T04:02:48.546Z,7.35
2023-04-28T04:05:16.570Z,7.32
2023-04-28T04:07:43.900Z,7.31
2023-04-28T04:10:11.242Z,7.28
2023-04-28T04:12:41.214Z,7.31
2023-04-28T04:15:08.803Z,7.39
2023-04-28T04:17:36.325Z,7.41
2023-04-28T04:20:04.344Z,7.39
2023-04-28T04:22:31.430Z,7.38
2023-04-28T04:24:58.529Z,7.41
2023-04-28T04:27:26.133Z,7.36
2023-04-28T04:29:53.247Z,7.38
2023-04-28T04:32:20.918Z,7.37
2023-04-28T04:34:48.079Z,7.38
2023-04-28T04:37:15.225Z,7.36
2023-04-28T04:39:51.731Z,7.35
2023-04-28T04:42:25.487Z,7.40
2023-04-28T04:45:15.478Z,7.42
2023-04-28T04:47:43.056Z,7.40
2023-04-28T04:50:11.049Z,7.37
2023-04-28T04:52:38.449Z,7.36
2023-04-28T04:55:06.033Z,7.35
2023-04-28T04:57:33.672Z,7.42
2023-04-28T05:00:23.384Z,7.40
2023-04-28T05:02:50.777Z,7.42
2023-04-28T05:05:21.937Z,7.41
2023-04-28T05:08:05.993Z,7.38
2023-04-28T05:10:33.327Z,7.38
2023-04-28T05:13:02.286Z,7.43
2023-04-28T05:15:29.439Z,7.43
2023-04-28T05:18:17.125Z,7.48
2023-04-28T05:20:44.349Z,7.43
2023-04-28T05:23:12.723Z,7.45
2023-04-28T05:25:39.921Z,7.45
2023-04-28T05:28:09.163Z,7.48
2023-04-28T05:30:36.289Z,7.48
2023-04-28T05:33:03.990Z,7.48
2023-04-28T05:35:31.671Z,7.46
2023-04-28T05:37:59.817Z,7.47
2023-04-28T05:40:27.553Z,7.49
2023-04-28T05:42:55.691Z,7.50
2023-04-28T05:45:22.844Z,7.50
2023-04-28T05:47:50.218Z,7.49
2023-04-28T05:50:17.411Z,7.44
2023-04-28T05:52:44.721Z,7.48
2023-04-28T05:55:12.194Z,7.51
2023-04-28T05:57:49.771Z,7.54
2023-04-28T06:00:21.260Z,7.56
2023-04-28T06:02:48.851Z,7.53
2023-04-28T06:05:16.677Z,7.56
2023-04-28T06:07:44.608Z,7.56
2023-04-28T06:10:11.970Z,7.56
2023-04-28T06:12:39.506Z,7.60
2023-04-28T06:15:06.997Z,7.63
2023-04-28T06:17:34.458Z,7.69
2023-04-28T06:20:01.730Z,7.64
2023-04-28T06:22:28.857Z,7.61
2023-04-28T06:24:56.078Z,7.60
2023-04-28T06:27:32.877Z,7.65
2023-04-28T06:29:59.973Z,7.70
2023-04-28T06:32:27.156Z,7.72
2023-04-28T06:34:55.044Z,7.66
2023-04-28T06:37:23.904Z,7.62
2023-04-28T06:39:50.955Z,7.61
2023-04-28T06:42:19.143Z,7.74
2023-04-28T06:44:53.586Z,7.79
2023-04-28T06:47:20.967Z,7.74
2023-04-28T06:49:50.130Z,7.74
2023-04-28T06:52:17.191Z,7.73
2023-04-28T06:54:44.319Z,7.79
2023-04-28T06:57:11.489Z,7.80
2023-04-28T06:59:38.537Z,7.76
2023-04-28T07:02:05.662Z,7.60
2023-04-28T07:04:32.795Z,7.67
2023-04-28T07:06:59.889Z,7.69
2023-04-28T07:09:26.946Z,7.77
2023-04-28T07:11:54.484Z,7.83
2023-04-28T07:14:21.803Z,7.73
2023-04-28T07:16:48.901Z,7.67
2023-04-28T07:19:16.341Z,7.68
2023-04-28T07:21:43.401Z,7.69
2023-04-28T07:24:10.688Z,7.63
2023-04-28T07:26:37.853Z,7.62
2023-04-28T07:29:04.914Z,7.64
2023-04-28T07:31:32.032Z,7.65
2023-04-28T07:33:59.047Z,7.60
2023-04-28T07:36:26.906Z,7.60
2023-04-28T07:38:54.042Z,7.60
2023-04-28T07:41:21.203Z,7.57
2023-04-28T07:43:48.354Z,7.62
2023-04-28T07:46:15.653Z,7.68
2023-04-28T07:48:42.797Z,7.74
2023-04-28T07:51:09.898Z,7.71
2023-04-28T07:53:36.970Z,7.79
2023-04-28T07:56:04.197Z,7.85
2023-04-28T07:58:31.498Z,7.92
2023-04-28T08:00:58.616Z,7.82
2023-04-28T08:03:25.885Z,7.81
2023-04-28T08:05:53.446Z,7.93
2023-04-28T08:08:20.606Z,7.92
2023-04-28T08:10:48.156Z,7.97
2023-04-28T08:13:16.697Z,8.06
2023-04-28T08:15:43.770Z,8.03
2023-04-28T08:18:11.183Z,8.04
2023-04-28T08:20:38.299Z,8.15
2023-04-28T08:23:05.542Z,8.19
2023-04-28T08:25:32.861Z,8.22
2023-04-28T08:28:00.146Z,8.23
2023-04-28T08:30:27.283Z,8.25
2023-04-28T08:32:54.509Z,8.32
2023-04-28T08:35:21.716Z,8.37
2023-04-28T08:37:49.660Z,8.29
2023-04-28T08:40:16.831Z,8.32
2023-04-28T08:42:45.884Z,8.36
2023-04-28T08:45:14.016Z,8.35
2023-04-28T08:47:48.174Z,8.37
2023-04-28T08:50:15.935Z,8.44
2023-04-28T08:52:43.543Z,8.50
2023-04-28T08:55:12.697Z,8.49
2023-04-28T08:57:43.092Z,8.40
2023-04-28T09:00:10.565Z,8.35
2023-04-28T09:02:38.565Z,8.44
2023-04-28T09:05:09.334Z,8.50
2023-04-28T09:07:36.841Z,8.46
2023-04-28T09:10:21.305Z,8.37
2023-04-28T09:12:50.617Z,8.39
2023-04-28T09:15:27.538Z,8.52
2023-04-28T09:17:55.009Z,8.53
2023-04-28T09:20:23.408Z,8.58
2023-04-28T09:22:51.160Z,8.65
2023-04-28T09:25:18.870Z,8.73
2023-04-28T09:27:46.234Z,8.83
2023-04-28T09:30:13.615Z,8.84
2023-04-28T09:32:40.822Z,8.79
2023-04-28T09:35:08.199Z,8.83
2023-04-28T09:37:35.604Z,8.82
2023-04-28T09:40:09.846Z,8.84
2023-04-28T09:42:41.198Z,8.81
2023-04-28T09:45:08.531Z,8.88
2023-04-28T09:47:37.391Z,8.89
2023-04-28T09:50:06.723Z,8.87
2023-04-28T09:52:35.005Z,8.97
2023-04-28T09:55:03.658Z,8.91
2023-04-28T09:57:34.363Z,8.96
2023-04-28T10:00:02.265Z,8.97
2023-04-28T10:05:09.683Z,9.02
2023-04-28T10:07:37.657Z,9.00
2023-04-28T10:10:05.560Z,9.09
2023-04-28T10:12:33.843Z,9.09
2023-04-28T10:15:01.858Z,9.14
2023-04-28T10:17:29.719Z,9.08
2023-04-28T10:19:57.515Z,9.11
2023-04-28T10:22:39.794Z,9.12
2023-04-28T10:25:12.926Z,9.10
2023-04-28T10:27:41.864Z,9.19
2023-04-28T10:32:46.191Z,9.25
2023-04-28T10:35:25.609Z,9.27
2023-04-28T10:38:12.261Z,9.29
2023-04-28T10:40:39.641Z,9.38
2023-04-28T10:43:07.731Z,9.54
2023-04-28T10:45:56.091Z,9.57
2023-04-28T10:48:44.646Z,9.72
2023-04-28T10:51:13.067Z,9.84
2023-04-28T10:53:47.593Z,9.87
2023-04-28T10:56:18.475Z,9.89
2023-04-28T10:58:46.523Z,9.92
2023-04-28T11:01:19.927Z,9.91
2023-04-28T11:03:47.522Z,9.94
2023-04-28T11:06:28.358Z,10.06
2023-04-28T11:08:57.709Z,10.20
2023-04-28T11:11:28.600Z,10.27
2023-04-28T11:14:16.028Z,10.38
2023-04-28T11:16:54.065Z,10.35
2023-04-28T11:19:25.611Z,10.30
2023-04-28T11:21:56.552Z,10.41
2023-04-28T11:24:27.440Z,10.35
2023-04-28T11:26:55.002Z,10.35
2023-04-28T11:29:35.946Z,10.39
2023-04-28T11:32:07.499Z,10.49
2023-04-28T11:34:35.136Z,10.61
2023-04-28T11:37:02.888Z,10.60
2023-04-28T11:39:31.006Z,10.52
2023-04-28T11:41:59.175Z,10.53
2023-04-28T11:44:27.494Z,10.64
2023-04-28T11:46:56.338Z,10.73
2023-04-28T11:49:29.089Z,10.70
2023-04-28T11:51:56.776Z,10.81
2023-04-28T11:54:25.775Z,10.91
2023-04-28T11:56:53.607Z,10.98
2023-04-28T12:02:07.390Z,11.15
2023-04-28T12:04:36.505Z,11.19
2023-04-28T12:07:05.096Z,11.23
2023-04-28T12:09:32.604Z,11.26
2023-04-28T12:12:02.827Z,11.26
2023-04-28T12:14:31.944Z,11.33
2023-04-28T12:16:59.063Z,11.43
2023-04-28T12:19:26.222Z,11.45
2023-04-28T12:22:01.041Z,11.47
2023-04-28T12:24:28.693Z,11.41
2023-04-28T12:27:13.748Z,11.49
2023-04-28T12:29:41.751Z,11.49
2023-04-28T12:32:10.900Z,11.59
2023-04-28T12:34:39.837Z,11.70
2023-04-28T12:37:07.382Z,11.66
2023-04-28T12:39:39.813Z,11.75
2023-04-28T12:42:07.970Z,11.87
2023-04-28T12:44:35.935Z,11.91
2023-04-28T12:47:04.029Z,12.05
2023-04-28T12:49:31.273Z,12.07
2023-04-28T12:52:00.330Z,12.15
2023-04-28T12:54:27.662Z,12.19
2023-04-28T12:56:54.884Z,12.23
2023-04-28T12:59:22.566Z,12.31
2023-04-28T13:01:50.401Z,12.29
2023-04-28T13:04:18.579Z,12.32
2023-04-28T13:06:46.466Z,12.28
2023-04-28T13:09:15.261Z,12.37
2023-04-28T13:11:42.756Z,12.45
2023-04-28T13:14:10.023Z,12.53
2023-04-28T13:16:37.333Z,12.56
2023-04-28T13:19:09.463Z,12.64
2023-04-28T13:21:39.331Z,12.70
2023-04-28T13:24:06.777Z,12.69
2023-04-28T13:26:34.224Z,12.71
2023-04-28T13:29:02.444Z,12.77
2023-04-28T13:31:32.430Z,12.79
2023-04-28T13:34:02.043Z,12.84
2023-04-28T13:36:29.822Z,12.85
2023-04-28T13:38:57.022Z,12.81
2023-04-28T13:41:24.364Z,12.87
2023-04-28T13:43:51.449Z,12.81
2023-04-28T13:46:18.670Z,12.83
2023-04-28T13:48:46.146Z,12.81
2023-04-28T13:51:13.420Z,12.78
2023-04-28T13:53:40.524Z,12.71
2023-04-28T13:56:08.391Z,12.66
2023-04-28T13:58:35.480Z,12.69
2023-04-28T14:01:04.429Z,12.69
2023-04-28T14:03:31.743Z,12.73
2023-04-28T14:05:59.121Z,12.77
2023-04-28T14:08:27.875Z,12.80
2023-04-28T14:10:55.225Z,12.71
2023-04-28T14:13:22.407Z,12.72
2023-04-28T14:15:58.515Z,12.90
2023-04-28T14:18:26.104Z,12.85
2023-04-28T14:20:54.620Z,12.85
2023-04-28T14:23:24.858Z,12.88
2023-04-28T14:25:56.164Z,12.81
2023-04-28T14:28:23.666Z,12.78
2023-04-28T14:30:51.041Z,12.75
2023-04-28T14:33:18.228Z,12.76
2023-04-28T14:35:45.494Z,12.65
2023-04-28T14:38:14.830Z,12.68
2023-04-28T14:40:43.139Z,12.73
2023-04-28T14:43:10.348Z,12.70
2023-04-28T14:45:38.277Z,12.72
2023-04-28T14:48:07.131Z,12.83
2023-04-28T14:50:34.373Z,12.82
2023-04-28T14:53:05.651Z,12.75
2023-04-28T14:55:33.397Z,12.83
2023-04-28T14:58:00.502Z,12.84
2023-04-28T15:00:27.584Z,12.84
2023-04-28T15:02:54.820Z,12.77
2023-04-28T15:05:22.087Z,12.81
2023-04-28T15:07:49.157Z,12.86
2023-04-28T15:10:16.551Z,12.91
2023-04-28T15:12:44.317Z,12.93
2023-04-28T15:15:11.906Z,12.95
2023-04-28T15:17:39.203Z,13.02
2023-04-28T15:20:07.318Z,13.06
2023-04-28T15:22:35.901Z,13.09
2023-04-28T15:25:03.070Z,13.05
2023-04-28T15:27:30.243Z,13.13
2023-04-28T15:29:57.403Z,13.12
2023-04-28T15:32:24.781Z,13.19
2023-04-28T15:34:52.264Z,13.23
2023-04-28T15:37:37.453Z,13.27
2023-04-28T15:40:09.088Z,13.23
2023-04-28T15:42:37.561Z,13.29
2023-04-28T15:45:05.395Z,13.30
2023-04-28T15:47:33.215Z,13.28
2023-04-28T15:50:00.543Z,13.25
2023-04-28T15:52:27.842Z,13.23
2023-04-28T15:54:55.517Z,13.18
2023-04-28T15:57:22.958Z,13.04
2023-04-28T15:59:51.710Z,13.15
2023-04-28T16:02:19.104Z,13.11
2023-04-28T16:04:46.994Z,13.13
2023-04-28T16:07:14.249Z,13.10
2023-04-28T16:09:41.352Z,13.10
2023-04-28T16:12:08.545Z,13.06
2023-04-28T16:14:37.504Z,13.04
2023-04-28T16:17:04.936Z,13.02
2023-04-28T16:19:32.137Z,12.99
2023-04-28T16:21:59.429Z,12.96
2023-04-28T16:24:27.052Z,12.89
2023-04-28T16:26:54.093Z,12.88
2023-04-28T16:29:22.280Z,12.91
2023-04-28T16:31:49.434Z,12.80
2023-04-28T16:34:17.139Z,12.78
2023-04-28T16:36:44.305Z,12.77
2023-04-28T16:39:11.436Z,12.80
2023-04-28T16:41:38.621Z,12.80
2023-04-28T16:44:05.766Z,12.83
2023-04-28T16:46:32.980Z,12.86
2023-04-28T16:49:00.404Z,12.81
2023-04-28T16:51:28.378Z,12.81
2023-04-28T16:53:55.423Z,12.77
2023-04-28T16:56:22.497Z,12.77
2023-04-28T16:58:49.579Z,12.78
2023-04-28T17:01:16.675Z,12.76
2023-04-28T17:03:44.630Z,12.66
2023-04-28T17:06:12.193Z,12.73
2023-04-28T17:08:40.207Z,12.65
2023-04-28T17:11:07.432Z,12.69
2023-04-28T17:13:35.466Z,12.62
2023-04-28T17:16:03.152Z,12.49
2023-04-28T17:18:31.164Z,12.51
2023-04-28T17:20:58.272Z,12.47
2023-04-28T17:23:27.718Z,12.43
2023-04-28T17:25:54.844Z,12.33
2023-04-28T17:28:25.220Z,12.27
2023-04-28T17:30:55.890Z,12.21
2023-04-28T17:33:23.072Z,12.11
2023-04-28T17:35:50.153Z,12.05
2023-04-28T17:38:17.378Z,12.00
2023-04-28T17:40:48.510Z,12.00
2023-04-28T17:43:20.447Z,11.99
2023-04-28T17:45:47.652Z,11.99
2023-04-28T17:48:14.844Z,12.00
2023-04-28T17:50:42.122Z,12.01
2023-04-28T17:53:09.293Z,12.02
2023-04-28T17:55:36.439Z,11.91
2023-04-28T17:58:03.510Z,11.98
2023-04-28T18:00:31.291Z,11.84
2023-04-28T18:02:58.706Z,11.78
2023-04-28T18:05:26.412Z,11.77
2023-04-28T18:07:53.700Z,11.81
2023-04-28T18:10:20.857Z,11.75
2023-04-28T18:12:47.957Z,11.66
2023-04-28T18:15:15.100Z,11.64
2023-04-28T18:17:42.172Z,11.59
2023-04-28T18:20:09.600Z,11.66
2023-04-28T18:22:37.692Z,11.67
2023-04-28T18:25:04.957Z,11.69
2023-04-28T18:27:32.016Z,11.68
2023-04-28T18:29:59.499Z,11.67
2023-04-28T18:32:26.600Z,11.72
2023-04-28T18:34:53.687Z,11.64
2023-04-28T18:37:20.987Z,11.55
2023-04-28T18:39:48.197Z,11.59
2023-04-28T18:42:15.398Z,11.48
2023-04-28T18:44:42.594Z,11.45
2023-04-28T18:47:09.744Z,11.36
2023-04-28T18:49:38.084Z,11.29
2023-04-28T18:52:05.229Z,11.23
2023-04-28T18:54:32.935Z,11.23
2023-04-28T18:57:00.031Z,11.26
2023-04-28T18:59:27.175Z,11.24
2023-04-28T19:01:54.365Z,11.21
2023-04-28T19:04:22.415Z,11.23
2023-04-28T19:06:49.671Z,11.29
2023-04-28T19:09:17.105Z,11.24
2023-04-28T19:11:44.228Z,11.18
2023-04-28T19:14:11.339Z,11.12
2023-04-28T19:16:38.662Z,11.07
2023-04-28T19:19:08.256Z,11.05
2023-04-28T19:21:43.545Z,11.01
2023-04-28T19:24:10.851Z,11.08
2023-04-28T19:26:38.232Z,11.05
2023-04-28T19:29:05.594Z,11.01
2023-04-28T19:31:32.851Z,10.99
2023-04-28T19:33:59.943Z,10.98
2023-04-28T19:36:28.240Z,10.99
2023-04-28T19:38:55.305Z,10.99
2023-04-28T19:41:22.421Z,11.00
2023-04-28T19:43:49.500Z,10.96
2023-04-28T19:46:17.028Z,10.93
2023-04-28T19:48:46.541Z,10.89
2023-04-28T19:51:14.761Z,10.86
2023-04-28T19:53:42.271Z,10.79
2023-04-28T19:56:10.215Z,10.65
2023-04-28T19:58:37.663Z,10.63
2023-04-28T20:01:07.725Z,10.42
2023-04-28T20:03:36.142Z,10.46
2023-04-28T20:06:03.920Z,10.47
2023-04-28T20:08:31.072Z,10.39
2023-04-28T20:10:58.184Z,10.37
2023-04-28T20:13:27.254Z,10.33
2023-04-28T20:15:55.762Z,10.22
2023-04-28T20:18:22.935Z,10.23
2023-04-28T20:20:52.473Z,10.22
2023-04-28T20:23:19.623Z,10.16
2023-04-28T20:25:47.141Z,10.16
2023-04-28T20:28:14.366Z,10.19
2023-04-28T20:30:44.485Z,10.22
2023-04-28T20:33:11.941Z,10.12
2023-04-28T20:35:39.069Z,10.07
2023-04-28T20:38:06.119Z,10.09
2023-04-28T20:40:33.569Z,10.07
2023-04-28T20:43:02.188Z,10.01
2023-04-28T20:45:32.184Z,9.99
2023-04-28T20:47:59.333Z,9.98
2023-04-28T20:50:28.303Z,9.96
2023-04-28T20:52:55.486Z,9.94
2023-04-28T20:55:23.075Z,9.97
2023-04-28T20:57:50.300Z,9.94
2023-04-28T21:00:17.651Z,9.97
2023-04-28T21:02:45.429Z,9.97
2023-04-28T21:05:12.808Z,9.93
2023-04-28T21:07:39.881Z,9.95
2023-04-28T21:10:07.291Z,9.92
2023-04-28T21:12:34.342Z,9.90
2023-04-28T21:15:01.697Z,9.90
2023-04-28T21:17:28.915Z,9.93
2023-04-28T21:19:57.375Z,9.91
2023-04-28T21:22:24.985Z,9.86
2023-04-28T21:24:54.439Z,9.83
2023-04-28T21:27:21.846Z,9.82
2023-04-28T21:29:49.108Z,9.80
2023-04-28T21:32:16.419Z,9.82
2023-04-28T21:34:47.061Z,9.84
2023-04-28T21:37:14.531Z,9.81
2023-04-28T21:39:41.572Z,9.79
2023-04-28T21:42:08.746Z,9.75
2023-04-28T21:44:35.851Z,9.76
2023-04-28T21:47:03.004Z,9.82
2023-04-28T21:49:30.072Z,9.83
2023-04-28T21:51:57.309Z,9.77
2023-04-28T21:54:24.372Z,9.74
2023-04-28T21:56:51.553Z,9.76
2023-04-28T21:59:18.653Z,9.75
2023-04-28T22:01:46.024Z,9.66
2023-04-28T22:04:13.574Z,9.67
2023-04-28T22:06:40.806Z,9.66
2023-04-28T22:09:08.203Z,9.61
2023-04-28T22:11:35.333Z,9.56
2023-04-28T22:14:02.509Z,9.59
2023-04-28T22:16:29.807Z,9.63
2023-04-28T22:18:57.601Z,9.67
2023-04-28T22:21:24.855Z,9.67
2023-04-28T22:23:52.037Z,9.65
2023-04-28T22:26:28.544Z,9.54
2023-04-28T22:28:55.638Z,9.53
2023-04-28T22:31:22.849Z,9.55
2023-04-28T22:33:50.005Z,9.52
2023-04-28T22:36:17.087Z,9.51
2023-04-28T22:38:44.248Z,9.50
2023-04-28T22:41:11.669Z,9.46
2023-04-28T22:43:38.781Z,9.41
2023-04-28T22:46:06.083Z,9.38
2023-04-28T22:48:33.452Z,9.38
2023-04-28T22:51:00.875Z,9.40
2023-04-28T22:53:27.986Z,9.35
2023-04-28T22:55:56.853Z,9.42
2023-04-28T22:58:23.955Z,9.37
2023-04-28T23:00:51.072Z,9.40
2023-04-28T23:03:18.421Z,9.40
2023-04-28T23:05:46.433Z,9.37
2023-04-28T23:08:13.491Z,9.42
2023-04-28T23:10:40.658Z,9.50
2023-04-28T23:13:07.714Z,9.55
2023-04-28T23:15:34.913Z,9.57
2023-04-28T23:18:02.132Z,9.59
2023-04-28T23:20:29.217Z,9.60
2023-04-28T23:22:58.320Z,9.64
2023-04-28T23:25:25.940Z,9.64
2023-04-28T23:27:53.305Z,9.71
2023-04-28T23:30:20.401Z,9.73
2023-04-28T23:32:47.597Z,9.73
2023-04-28T23:35:14.775Z,9.72
2023-04-28T23:37:42.093Z,9.74
2023-04-28T23:40:09.519Z,9.75
2023-04-28T23:42:37.263Z,9.77
2023-04-28T23:45:04.792Z,9.81
2023-04-28T23:47:32.028Z,9.82
2023-04-28T23:49:59.231Z,9.83
2023-04-28T23:52:26.353Z,9.84
2023-04-28T23:54:53.415Z,9.84
2023-04-28T23:57:20.520Z,9.84
2023-04-28T23:59:48.057Z,9.86
